Time;durP1;ratioP1;P1;durP2;ratioP2;P2;SDS_P1;SDS_P2;PMS_P1;PMS_P2;Temp;Humidity;BMP_temperature;BMP_pressure;BME280_temperature;BME280_humidity;BME280_pressure;Samples;Min_cycle;Max_cycle;Signal;HPM_P1;HPM_P2
2022/04/29 00:00:59;;;;;;;;;;;;;;;18.89;61.72;99405.44;2078393;28;19928;-49
2022/04/29 00:02:00;;;;;;;;;;;;;;;18.89;61.53;99405.44;2077425;28;20014;-45
2022/04/29 00:03:01;;;;;;;;;;;;;;;18.88;61.51;99406.44;2078739;28;20016;-47
2022/04/29 00:04:04;;;;;;;;;;;;;;;18.88;61.47;99409.13;2082843;28;19963;-47
2022/04/29 00:05:09;;;;;;;;;;;;;;;18.88;61.72;99401.06;2076624;28;20462;-48
2022/04/29 00:06:09;;;;;;;;;;;;;;;18.88;61.25;99400.25;2079837;28;20021;-48
2022/04/29 00:07:11;;;;;;;;;;;;;;;18.88;61.42;99405.63;2080223;28;19951;-50
2022/04/29 00:08:13;;;;;;;;;;;;;;;18.86;61.52;99403.13;2078504;28;19929;-50
2022/04/29 00:09:15;;;;;;;;;;;;;;;18.87;61.75;99396.72;2080600;28;20295;-49
2022/04/29 00:10:15;;;;;;;;;;;;;;;18.86;61.46;99408.50;2081378;28;19928;-50
2022/04/29 00:11:17;;;;;;;;;;;;;;;18.86;61.60;99403.13;2078466;28;19929;-47
2022/04/29 00:12:19;;;;;;;;;;;;;;;18.84;61.55;99405.16;2088242;28;20326;-45
2022/04/29 00:13:20;;;;;;;;;;;;;;;18.84;61.55;99405.16;2088838;28;20124;-49
2022/04/29 00:14:23;;;;;;;;;;;;;;;18.84;61.78;99398.97;2087064;28;20406;-48
2022/04/29 00:15:25;;;;;;;;;;;;;;;18.84;61.35;99394.41;2086344;28;19932;-50
2022/04/29 00:16:26;;;;;;;;;;;;;;;18.85;61.38;99397.94;2086591;28;20355;-50
2022/04/29 00:17:28;;;;;;;;;;;;;;;18.85;61.36;99397.94;2085574;28;19928;-50
2022/04/29 00:18:29;;;;;;;;;;;;;;;18.85;61.34;99395.25;2086792;28;19925;-49
2022/04/29 00:19:30;;;;;;;;;;;;;;;18.85;61.66;99397.94;2088366;28;20098;-52
2022/04/29 00:20:32;;;;;;;;;;;;;;;18.85;61.28;99398.75;2088809;28;20062;-50
2022/04/29 00:21:34;;;;;;;;;;;;;;;18.83;61.40;99395.41;2087367;28;20042;-51
2022/04/29 00:22:35;;;;;;;;;;;;;;;18.84;61.31;99399.78;2085307;28;19932;-48
2022/04/29 00:23:36;;;;;;;;;;;;;;;18.84;61.27;99393.59;2090219;28;20432;-48
2022/04/29 00:24:37;;;;;;;;;;;;;;;18.82;61.67;99395.63;2085907;28;20447;-53
2022/04/29 00:25:38;;;;;;;;;;;;;;;18.82;61.63;99392.94;2087187;28;19925;-48
2022/04/29 00:26:39;;;;;;;;;;;;;;;18.82;61.75;99393.75;2089592;28;19937;-51
2022/04/29 00:27:41;;;;;;;;;;;;;;;18.82;61.35;99391.06;2089097;28;19932;-48
2022/04/29 00:28:41;;;;;;;;;;;;;;;18.81;61.48;99386.72;2085671;28;19952;-47
2022/04/29 00:29:43;;;;;;;;;;;;;;;18.82;61.46;99388.38;2087114;28;19931;-49
2022/04/29 00:30:43;;;;;;;;;;;;;;;18.84;61.29;99393.59;2087054;28;20306;-47
2022/04/29 00:31:45;;;;;;;;;;;;;;;18.84;61.37;99393.59;2086988;28;19968;-51
2022/04/29 00:32:47;;;;;;;;;;;;;;;18.82;61.58;99390.25;2089129;28;19986;-50
2022/04/29 00:33:48;;;;;;;;;;;;;;;18.81;61.33;99392.09;2087668;28;19956;-49
2022/04/29 00:34:50;;;;;;;;;;;;;;;18.81;61.53;99394.78;2088583;28;20402;-47
2022/04/29 00:35:52;;;;;;;;;;;;;;;18.82;61.33;99392.94;2088493;28;19931;-46
2022/04/29 00:36:53;;;;;;;;;;;;;;;18.82;61.60;99395.63;2087371;28;20447;-49
2022/04/29 00:37:56;;;;;;;;;;;;;;;18.82;61.52;99388.38;2087581;28;19939;-46
2022/04/29 00:38:56;;;;;;;;;;;;;;;18.81;61.37;99392.09;2088217;28;19924;-50
2022/04/29 00:39:58;;;;;;;;;;;;;;;18.82;61.30;99390.25;2085281;28;20492;-47
2022/04/29 00:40:58;;;;;;;;;;;;;;;18.81;61.51;99392.09;2088488;28;20017;-48
2022/04/29 00:42:00;;;;;;;;;;;;;;;18.80;61.46;99395.78;2090223;28;19941;-52
2022/04/29 00:43:01;;;;;;;;;;;;;;;18.80;61.45;99387.72;2086137;28;19975;-50
2022/04/29 00:44:03;;;;;;;;;;;;;;;18.79;61.55;99391.44;2083936;28;19928;-48
2022/04/29 00:45:04;;;;;;;;;;;;;;;18.79;61.60;99388.75;2091097;28;20495;-48
2022/04/29 00:46:07;;;;;;;;;;;;;;;18.80;61.60;99386.91;2085820;28;19929;-45
2022/04/29 00:47:09;;;;;;;;;;;;;;;18.78;61.51;99389.78;2088841;28;19951;-47
2022/04/29 00:48:11;;;;;;;;;;;;;;;18.78;61.32;99384.41;2085187;28;20015;-49
2022/04/29 00:49:12;;;;;;;;;;;;;;;18.78;61.21;99383.56;2086989;28;19948;-49
2022/04/29 00:50:15;;;;;;;;;;;;;;;18.79;61.47;99388.75;2088884;28;19931;-48
2022/04/29 00:51:17;;;;;;;;;;;;;;;18.77;61.23;99388.09;2089931;28;19977;-52
2022/04/29 00:52:19;;;;;;;;;;;;;;;18.77;61.17;99388.09;2091950;28;19981;-51
2022/04/29 00:53:21;;;;;;;;;;;;;;;18.77;61.50;99387.28;2088012;28;19928;-47
2022/04/29 00:54:25;;;;;;;;;;;;;;;18.75;61.56;99385.63;2088301;28;20027;-49
2022/04/29 00:55:26;;;;;;;;;;;;;;;18.75;61.50;99384.78;2086125;28;19933;-49
2022/04/29 00:56:29;;;;;;;;;;;;;;;18.75;61.55;99388.31;2077946;28;19944;-46
2022/04/29 00:57:32;;;;;;;;;;;;;;;18.77;61.30;99387.28;2080534;28;20067;-47
2022/04/29 00:58:37;;;;;;;;;;;;;;;18.77;61.19;99382.72;2082950;28;20043;-47
2022/04/29 00:59:40;;;;;;;;;;;;;;;18.74;61.27;99389.31;2090648;28;20023;-52
2022/04/29 01:00:42;;;;;;;;;;;;;;;18.75;61.45;99384.78;2088344;28;19959;-52
2022/04/29 01:01:43;;;;;;;;;;;;;;;18.74;61.38;99380.41;2087905;28;19929;-50
2022/04/29 01:02:46;;;;;;;;;;;;;;;18.75;61.62;99382.09;2087458;28;19925;-50
2022/04/29 01:03:48;;;;;;;;;;;;;;;18.74;61.41;99380.41;2091016;28;19985;-50
2022/04/29 01:04:55;;;;;;;;;;;;;;;18.74;61.37;99385.78;2087538;28;20007;-50
2022/04/29 01:05:55;;;;;;;;;;;;;;;18.74;61.56;99389.31;2089201;28;19932;-48
2022/04/29 01:06:58;;;;;;;;;;;;;;;18.72;61.27;99380.59;2087978;28;20646;-49
2022/04/29 01:07:59;;;;;;;;;;;;;;;18.73;61.49;99376.03;2089582;28;19932;-50
2022/04/29 01:09:01;;;;;;;;;;;;;;;18.71;61.48;99370.84;2086483;28;19928;-50
2022/04/29 01:10:02;;;;;;;;;;;;;;;18.72;61.57;99377.91;2088207;28;19940;-47
2022/04/29 01:11:03;;;;;;;;;;;;;;;18.73;61.40;99382.25;2086496;28;19925;-48
2022/04/29 01:12:04;;;;;;;;;;;;;;;18.73;61.23;99376.88;2085785;28;19978;-44
2022/04/29 01:13:06;;;;;;;;;;;;;;;18.72;61.49;99374.34;2084759;28;20023;-46
2022/04/29 01:14:07;;;;;;;;;;;;;;;18.71;61.51;99378.06;2083921;28;19929;-45
2022/04/29 01:15:10;;;;;;;;;;;;;;;18.71;61.39;99378.91;2086148;28;20070;-45
2022/04/29 01:16:10;;;;;;;;;;;;;;;18.72;61.07;99379.72;2085242;28;20429;-46
2022/04/29 01:17:12;;;;;;;;;;;;;;;18.73;61.22;99386.78;2086906;28;19929;-47
2022/04/29 01:18:13;;;;;;;;;;;;;;;18.71;61.42;99378.91;2085822;28;20406;-47
2022/04/29 01:19:15;;;;;;;;;;;;;;;18.71;61.33;99384.28;2086191;28;20015;-47
2022/04/29 01:20:18;;;;;;;;;;;;;;;18.71;61.28;99380.75;2084009;28;19935;-47
2022/04/29 01:21:19;;;;;;;;;;;;;;;18.72;61.25;99385.97;2083118;28;19935;-48
2022/04/29 01:22:22;;;;;;;;;;;;;;;18.70;61.36;99377.25;2084821;28;19924;-46
2022/04/29 01:23:23;;;;;;;;;;;;;;;18.71;61.13;99384.28;2086493;28;19931;-45
2022/04/29 01:24:24;;;;;;;;;;;;;;;18.70;61.21;99381.78;2086989;28;20294;-45
2022/04/29 01:25:25;;;;;;;;;;;;;;;18.69;61.54;99377.41;2086387;28;19928;-45
2022/04/29 01:26:27;;;;;;;;;;;;;;;18.69;61.41;99385.47;2082933;28;19931;-46
2022/04/29 01:27:27;;;;;;;;;;;;;;;18.69;61.46;99380.09;2087553;28;19932;-47
2022/04/29 01:28:30;;;;;;;;;;;;;;;18.69;61.26;99378.28;2086715;28;19928;-46
2022/04/29 01:29:31;;;;;;;;;;;;;;;18.69;61.36;99382.78;2082403;28;19932;-46
2022/04/29 01:30:33;;;;;;;;;;;;;;;18.70;61.43;99379.09;2082167;28;19933;-46
2022/04/29 01:31:34;;;;;;;;;;;;;;;18.70;61.42;99381.78;2084945;28;19928;-46
2022/04/29 01:32:36;;;;;;;;;;;;;;;18.70;61.14;99381.78;2088652;28;19951;-47
2022/04/29 01:33:38;;;;;;;;;;;;;;;18.69;61.24;99389.03;2087147;28;19932;-45
2022/04/29 01:34:40;;;;;;;;;;;;;;;18.70;61.25;99381.78;2087282;28;19925;-45
2022/04/29 01:35:40;;;;;;;;;;;;;;;18.69;61.22;99385.47;2086245;28;19932;-47
2022/04/29 01:36:42;;;;;;;;;;;;;;;18.69;61.34;99382.78;2088743;28;19943;-46
2022/04/29 01:37:44;;;;;;;;;;;;;;;18.68;61.06;99376.59;2087686;28;19924;-45
2022/04/29 01:38:45;;;;;;;;;;;;;;;18.67;61.17;99383.00;2086843;28;20053;-46
2022/04/29 01:39:46;;;;;;;;;;;;;;;18.67;61.41;99376.78;2087486;28;19929;-45
2022/04/29 01:40:47;;;;;;;;;;;;;;;18.68;61.40;99376.59;2089986;28;20402;-45
2022/04/29 01:41:49;;;;;;;;;;;;;;;18.67;61.27;99383.00;2088230;28;19931;-45
2022/04/29 01:42:49;;;;;;;;;;;;;;;18.67;61.29;99384.84;2082779;28;19932;-47
2022/04/29 01:43:51;;;;;;;;;;;;;;;18.68;61.00;99381.13;2091807;28;19929;-45
2022/04/29 01:44:51;;;;;;;;;;;;;;;18.67;61.24;99384.84;2090022;28;19932;-46
2022/04/29 01:45:54;;;;;;;;;;;;;;;18.66;61.20;99381.31;2086321;28;20476;-46
2022/04/29 01:46:54;;;;;;;;;;;;;;;18.65;61.15;99382.34;2088124;28;19924;-44
2022/04/29 01:47:56;;;;;;;;;;;;;;;18.66;61.30;99385.84;2089965;28;19925;-46
2022/04/29 01:48:56;;;;;;;;;;;;;;;18.67;61.20;99387.53;2083689;28;19939;-47
2022/04/29 01:49:58;;;;;;;;;;;;;;;18.66;61.41;99380.47;2084989;28;20548;-46
2022/04/29 01:50:58;;;;;;;;;;;;;;;18.66;61.13;99385.84;2084734;28;19932;-48
2022/04/29 01:52:00;;;;;;;;;;;;;;;18.65;61.35;99386.88;2087724;28;20597;-46
2022/04/29 01:53:02;;;;;;;;;;;;;;;18.66;61.36;99383.16;2085552;28;19963;-47
2022/04/29 01:54:09;;;;;;;;;;;;;;;18.65;61.43;99389.56;2090099;28;19929;-45
2022/04/29 01:55:10;;;;;;;;;;;;;;;18.64;61.29;99383.38;2086120;28;19925;-46
2022/04/29 01:56:11;;;;;;;;;;;;;;;18.64;61.03;99387.91;2088200;28;19929;-47
2022/04/29 01:57:12;;;;;;;;;;;;;;;18.64;61.32;99386.06;2088187;28;19940;-47
2022/04/29 01:58:13;;;;;;;;;;;;;;;18.63;61.30;99387.06;2088065;28;19976;-44
2022/04/29 01:59:14;;;;;;;;;;;;;;;18.64;61.11;99382.53;2080632;28;19928;-45
2022/04/29 02:00:16;;;;;;;;;;;;;;;18.63;61.23;99384.38;2086255;28;20314;-45
2022/04/29 02:01:17;;;;;;;;;;;;;;;18.64;61.21;99395.97;2088063;28;19924;-44
2022/04/29 02:02:21;;;;;;;;;;;;;;;18.63;61.18;99381.69;2087579;28;19968;-44
2022/04/29 02:03:21;;;;;;;;;;;;;;;18.63;61.31;99387.06;2087809;28;20406;-48
2022/04/29 02:04:23;;;;;;;;;;;;;;;18.63;61.28;99388.91;2080650;28;19928;-46
2022/04/29 02:05:24;;;;;;;;;;;;;;;18.62;61.33;99382.72;2079086;28;20607;-46
2022/04/29 02:06:26;;;;;;;;;;;;;;;18.61;61.44;99378.38;2077319;28;19982;-47
2022/04/29 02:07:26;;;;;;;;;;;;;;;18.63;61.04;99383.53;2079591;28;19979;-54
2022/04/29 02:08:29;;;;;;;;;;;;;;;18.63;61.20;99378.16;2075570;28;20559;-45
2022/04/29 02:09:29;;;;;;;;;;;;;;;18.63;61.09;99380.84;2078469;28;19929;-48
2022/04/29 02:10:31;;;;;;;;;;;;;;;18.62;61.24;99379.19;2077566;28;19972;-50
2022/04/29 02:11:31;;;;;;;;;;;;;;;18.61;61.40;99381.06;2078066;28;19928;-45
2022/04/29 02:12:34;;;;;;;;;;;;;;;18.62;61.43;99379.19;2077969;28;19929;-46
2022/04/29 02:13:35;;;;;;;;;;;;;;;18.61;61.33;99372.13;2078409;28;19929;-46
2022/04/29 02:14:37;;;;;;;;;;;;;;;18.61;61.09;99372.13;2080851;28;20697;-46
2022/04/29 02:15:38;;;;;;;;;;;;;;;18.61;61.22;99373.00;2077010;28;19929;-47
2022/04/29 02:16:39;;;;;;;;;;;;;;;18.61;60.99;99375.69;2079902;28;20466;-46
2022/04/29 02:17:40;;;;;;;;;;;;;;;18.62;61.32;99368.44;2081476;28;19925;-46
2022/04/29 02:18:42;;;;;;;;;;;;;;;18.60;61.24;99359.72;2079910;28;19982;-48
2022/04/29 02:19:42;;;;;;;;;;;;;;;18.61;61.09;99364.06;2079180;28;20332;-48
2022/04/29 02:20:44;;;;;;;;;;;;;;;18.61;61.16;99364.94;2078594;28;19986;-46
2022/04/29 02:21:44;;;;;;;;;;;;;;;18.61;61.25;99364.94;2079210;28;19974;-48
2022/04/29 02:22:46;;;;;;;;;;;;;;;18.61;61.19;99364.94;2076738;28;19940;-46
2022/04/29 02:23:48;;;;;;;;;;;;;;;18.60;61.18;99367.78;2082152;28;19940;-46
2022/04/29 02:24:49;;;;;;;;;;;;;;;18.62;61.26;99373.81;2079593;28;20649;-46
2022/04/29 02:25:51;;;;;;;;;;;;;;;18.60;61.14;99357.88;2080663;28;19933;-46
2022/04/29 02:26:52;;;;;;;;;;;;;;;18.60;61.23;99371.31;2078951;28;19925;-47
2022/04/29 02:27:54;;;;;;;;;;;;;;;18.59;61.33;99364.28;2074431;28;19954;-45
2022/04/29 02:28:54;;;;;;;;;;;;;;;18.60;61.18;99365.94;2075807;28;21102;-47
2022/04/29 02:29:56;;;;;;;;;;;;;;;18.60;61.23;99367.78;2076141;28;20371;-47
2022/04/29 02:30:57;;;;;;;;;;;;;;;18.60;61.07;99365.09;2078294;28;19929;-45
2022/04/29 02:31:58;;;;;;;;;;;;;;;18.59;61.01;99366.13;2078630;28;19925;-47
2022/04/29 02:33:00;;;;;;;;;;;;;;;18.58;61.14;99367.13;2081467;28;20027;-46
2022/04/29 02:34:00;;;;;;;;;;;;;;;18.60;61.02;99373.16;2077796;28;19933;-46
2022/04/29 02:35:02;;;;;;;;;;;;;;;18.58;61.00;99373.34;2079456;28;19925;-48
2022/04/29 02:36:05;;;;;;;;;;;;;;;18.59;61.20;99372.34;2077945;28;19937;-45
2022/04/29 02:37:07;;;;;;;;;;;;;;;18.59;61.40;99376.88;2082069;28;19932;-47
2022/04/29 02:38:07;;;;;;;;;;;;;;;18.57;61.10;99376.22;2076621;28;19937;-45
2022/04/29 02:39:10;;;;;;;;;;;;;;;18.58;61.18;99372.50;2078692;28;19929;-46
2022/04/29 02:40:11;;;;;;;;;;;;;;;18.57;61.40;99370.84;2078561;28;19925;-46
2022/04/29 02:41:12;;;;;;;;;;;;;;;18.59;61.29;99368.81;2078235;28;19929;-45
2022/04/29 02:42:13;;;;;;;;;;;;;;;18.59;61.03;99371.50;2073359;28;19933;-47
2022/04/29 02:43:14;;;;;;;;;;;;;;;18.57;61.31;99366.31;2078913;28;20570;-45
2022/04/29 02:44:15;;;;;;;;;;;;;;;18.58;61.17;99375.19;2077982;28;19929;-47
2022/04/29 02:45:17;;;;;;;;;;;;;;;18.57;60.96;99365.47;2077131;28;19959;-46
2022/04/29 02:46:17;;;;;;;;;;;;;;;18.58;61.17;99365.28;2067523;28;19933;-46
2022/04/29 02:47:19;;;;;;;;;;;;;;;18.57;61.15;99370.84;2077056;28;19929;-49
2022/04/29 02:48:19;;;;;;;;;;;;;;;18.56;61.16;99371.88;2079133;28;19926;-47
2022/04/29 02:49:21;;;;;;;;;;;;;;;18.57;61.24;99362.78;2082157;28;19925;-46
2022/04/29 02:50:22;;;;;;;;;;;;;;;18.56;61.13;99367.34;2076871;28;19933;-50
2022/04/29 02:51:23;;;;;;;;;;;;;;;18.56;61.02;99367.34;2076036;28;19929;-47
2022/04/29 02:52:25;;;;;;;;;;;;;;;18.54;61.13;99367.50;2073318;28;19929;-46
2022/04/29 02:53:25;;;;;;;;;;;;;;;18.55;61.04;99362.97;2077603;28;19932;-47
2022/04/29 02:54:28;;;;;;;;;;;;;;;18.56;61.08;99364.66;2078343;28;19944;-47
2022/04/29 02:55:30;;;;;;;;;;;;;;;18.55;61.22;99365.66;2080388;28;19925;-47
2022/04/29 02:56:30;;;;;;;;;;;;;;;18.56;61.02;99364.66;2084877;28;19929;-48
2022/04/29 02:57:32;;;;;;;;;;;;;;;18.55;61.00;99368.34;2080527;28;20362;-47
2022/04/29 02:58:32;;;;;;;;;;;;;;;18.55;61.26;99368.34;2073762;28;20027;-50
2022/04/29 02:59:34;;;;;;;;;;;;;;;18.53;61.25;99363.16;2080382;28;19944;-49
2022/04/29 03:00:34;;;;;;;;;;;;;;;18.55;60.85;99368.34;2089041;28;19924;-51
2022/04/29 03:01:36;;;;;;;;;;;;;;;18.54;61.17;99366.69;2086860;28;20461;-50
2022/04/29 03:02:37;;;;;;;;;;;;;;;18.54;61.25;99370.19;2086552;28;20043;-50
2022/04/29 03:03:38;;;;;;;;;;;;;;;18.57;60.96;99370.84;2086180;28;19925;-45
2022/04/29 03:04:40;;;;;;;;;;;;;;;18.56;60.87;99372.72;2090050;28;19931;-48
2022/04/29 03:05:40;;;;;;;;;;;;;;;18.53;61.05;99365.84;2084765;28;19928;-46
2022/04/29 03:06:42;;;;;;;;;;;;;;;18.54;61.08;99364.00;2088134;28;20378;-52
2022/04/29 03:07:43;;;;;;;;;;;;;;;18.52;61.24;99364.16;2087897;28;19936;-48
2022/04/29 03:08:44;;;;;;;;;;;;;;;18.52;61.38;99363.34;2086731;28;20387;-49
2022/04/29 03:09:48;;;;;;;;;;;;;;;18.52;61.13;99358.78;2086860;28;19924;-47
2022/04/29 03:10:49;;;;;;;;;;;;;;;18.50;61.11;99360.84;2083645;28;19932;-48
2022/04/29 03:11:50;;;;;;;;;;;;;;;18.52;61.24;99364.16;2086214;28;19928;-50
2022/04/29 03:12:51;;;;;;;;;;;;;;;18.52;61.21;99353.41;2086174;28;19944;-50
2022/04/29 03:13:52;;;;;;;;;;;;;;;18.51;60.94;99356.31;2085619;28;19932;-47
2022/04/29 03:15:15;;;;;;;;;;;;;;;18.52;61.27;99363.34;2088267;28;20500;-50
2022/04/29 03:16:15;;;;;;;;;;;;;;;18.51;61.02;99357.13;2088407;28;19959;-47
2022/04/29 03:18:32;;;;;;;;;;;;;;;18.50;61.01;99352.78;2088211;28;19971;-48
2022/04/29 03:19:33;;;;;;;;;;;;;;;18.52;61.05;99353.41;2088462;28;19929;-48
2022/04/29 03:20:35;;;;;;;;;;;;;;;18.51;61.09;99351.78;2087811;28;20003;-44
2022/04/29 03:21:36;;;;;;;;;;;;;;;18.50;61.09;99350.13;2085871;28;20036;-51
2022/04/29 03:22:37;;;;;;;;;;;;;;;18.49;61.16;99359.16;2090084;28;20298;-47
2022/04/29 03:23:38;;;;;;;;;;;;;;;18.49;61.11;99345.75;2088216;28;19928;-49
2022/04/29 03:24:39;;;;;;;;;;;;;;;18.50;60.94;99350.13;2090569;28;19956;-51
2022/04/29 03:25:42;;;;;;;;;;;;;;;18.49;61.06;99350.28;2088262;28;20306;-45
2022/04/29 03:26:42;;;;;;;;;;;;;;;18.49;61.00;99350.28;2085511;28;19932;-51
2022/04/29 03:27:44;;;;;;;;;;;;;;;18.48;61.13;99349.44;2086131;28;20718;-48
2022/04/29 03:28:45;;;;;;;;;;;;;;;18.51;60.86;99351.78;2087711;28;20024;-52
2022/04/29 03:29:47;;;;;;;;;;;;;;;18.49;61.01;99347.59;2085563;28;21045;-47
2022/04/29 03:30:49;;;;;;;;;;;;;;;18.49;60.93;99344.91;2086272;28;19929;-47
2022/04/29 03:31:49;;;;;;;;;;;;;;;18.47;61.12;99350.50;2086903;28;19924;-47
2022/04/29 03:32:52;;;;;;;;;;;;;;;18.50;60.92;99349.28;2087451;28;19932;-46
2022/04/29 03:33:53;;;;;;;;;;;;;;;18.49;61.08;99348.41;2086135;28;19944;-49
2022/04/29 03:34:54;;;;;;;;;;;;;;;18.48;61.00;99346.78;2085577;28;19940;-49
2022/04/29 03:35:55;;;;;;;;;;;;;;;18.46;61.00;99353.34;2083846;28;19925;-50
2022/04/29 03:36:56;;;;;;;;;;;;;;;18.49;61.14;99350.28;2083518;28;19925;-48
2022/04/29 03:37:57;;;;;;;;;;;;;;;18.47;61.03;99352.31;2086124;28;20417;-47
2022/04/29 03:38:58;;;;;;;;;;;;;;;18.48;60.92;99356.69;2086820;28;19935;-48
2022/04/29 03:39:59;;;;;;;;;;;;;;;18.48;61.13;99351.31;2080695;28;22909;-45
2022/04/29 03:41:02;;;;;;;;;;;;;;;18.47;61.05;99355.84;2079826;28;19941;-51
2022/04/29 03:42:03;;;;;;;;;;;;;;;18.46;61.16;99354.16;2080252;28;19978;-45
2022/04/29 03:43:05;;;;;;;;;;;;;;;18.46;61.21;99354.16;2077402;28;19945;-48
2022/04/29 03:44:05;;;;;;;;;;;;;;;18.48;61.13;99354.00;2084804;28;20671;-51
2022/04/29 03:45:07;;;;;;;;;;;;;;;18.47;61.24;99358.53;2085248;28;19935;-49
2022/04/29 03:46:09;;;;;;;;;;;;;;;18.48;60.94;99354.81;2088186;28;19931;-48
2022/04/29 03:47:10;;;;;;;;;;;;;;;18.47;61.23;99355.84;2088862;28;19928;-45
2022/04/29 03:48:11;;;;;;;;;;;;;;;18.47;60.87;99355.84;2086329;28;20400;-49
2022/04/29 03:50:32;;;;;;;;;;;;;;;18.48;61.00;99354.00;2088116;28;20386;-48
2022/04/29 03:51:33;;;;;;;;;;;;;;;18.48;60.95;99354.81;2084863;28;19931;-47
2022/04/29 03:52:34;;;;;;;;;;;;;;;18.47;60.96;99355.00;2088996;28;20029;-44
2022/04/29 03:53:35;;;;;;;;;;;;;;;18.46;60.92;99359.53;2084830;28;19924;-50
2022/04/29 03:54:36;;;;;;;;;;;;;;;18.46;60.79;99354.16;2087394;28;20018;-51
2022/04/29 03:55:38;;;;;;;;;;;;;;;18.44;61.18;99358.91;2085350;28;19929;-47
2022/04/29 03:56:40;;;;;;;;;;;;;;;18.46;61.08;99359.53;2086944;28;19988;-48
2022/04/29 03:57:41;;;;;;;;;;;;;;;18.44;61.09;99356.22;2085508;28;19932;-45
2022/04/29 03:58:42;;;;;;;;;;;;;;;18.44;60.80;99356.22;2087761;28;20019;-47
2022/04/29 03:59:43;;;;;;;;;;;;;;;18.46;60.82;99350.66;2084029;28;19932;-46
2022/04/29 04:00:44;;;;;;;;;;;;;;;18.46;60.89;99354.16;2092896;28;19928;-49
2022/04/29 04:01:45;;;;;;;;;;;;;;;18.45;61.04;99357.88;2083881;28;19939;-50
2022/04/29 04:02:46;;;;;;;;;;;;;;;18.45;60.96;99354.38;2085056;28;20003;-45
2022/04/29 04:03:47;;;;;;;;;;;;;;;18.46;61.04;99356.03;2088321;28;20414;-48
2022/04/29 04:04:49;;;;;;;;;;;;;;;18.43;60.94;99354.53;2090644;28;19924;-49
2022/04/29 04:07:06;;;;;;;;;;;;;;;18.42;60.91;99360.94;2089314;28;19936;-47
2022/04/29 04:08:07;;;;;;;;;;;;;;;18.42;61.00;99358.25;2083656;28;19937;-49
2022/04/29 04:09:08;;;;;;;;;;;;;;;18.42;61.06;99358.25;2085896;28;19928;-47
2022/04/29 04:10:09;;;;;;;;;;;;;;;18.43;60.99;99359.91;2089507;28;19944;-47
2022/04/29 04:11:11;;;;;;;;;;;;;;;18.43;61.06;99357.22;2087414;28;20615;-48
2022/04/29 04:12:14;;;;;;;;;;;;;;;18.47;61.03;99360.38;2088094;28;19943;-45
2022/04/29 04:13:14;;;;;;;;;;;;;;;18.44;60.99;99358.06;2080018;28;20003;-47
2022/04/29 04:14:16;;;;;;;;;;;;;;;18.44;60.89;99356.22;2086226;28;19924;-49
2022/04/29 04:15:17;;;;;;;;;;;;;;;18.44;60.91;99358.06;2087754;28;19925;-48
2022/04/29 04:16:23;;;;;;;;;;;;;;;18.45;60.65;99352.50;2087598;28;20010;-49
2022/04/29 04:17:23;;;;;;;;;;;;;;;18.44;60.92;99352.69;2088169;28;19956;-44
2022/04/29 04:18:25;;;;;;;;;;;;;;;18.43;60.98;99359.09;2087876;28;20394;-50
2022/04/29 04:19:25;;;;;;;;;;;;;;;18.43;60.76;99354.53;2077746;28;19928;-45
2022/04/29 04:20:27;;;;;;;;;;;;;;;18.43;60.84;99351.84;2085014;28;20028;-47
2022/04/29 04:21:28;;;;;;;;;;;;;;;18.42;61.12;99347.50;2086568;28;19929;-47
2022/04/29 04:22:29;;;;;;;;;;;;;;;18.43;60.71;99354.53;2083847;28;19939;-45
2022/04/29 04:23:30;;;;;;;;;;;;;;;18.43;60.93;99361.78;2088391;28;19928;-46
2022/04/29 04:24:31;;;;;;;;;;;;;;;18.42;60.89;99363.63;2090241;28;19975;-45
2022/04/29 04:25:33;;;;;;;;;;;;;;;18.42;60.79;99358.25;2085036;28;19929;-46
2022/04/29 04:26:33;;;;;;;;;;;;;;;18.42;60.75;99360.94;2088563;28;19932;-46
2022/04/29 04:27:36;;;;;;;;;;;;;;;18.39;61.13;99366.69;2090013;28;20160;-46
2022/04/29 04:28:37;;;;;;;;;;;;;;;18.40;60.97;99362.97;2088576;28;19931;-47
2022/04/29 04:29:38;;;;;;;;;;;;;;;18.40;61.05;99360.28;2091958;28;19935;-47
2022/04/29 04:30:39;;;;;;;;;;;;;;;18.42;60.92;99369.00;2089040;28;19928;-46
2022/04/29 04:31:40;;;;;;;;;;;;;;;18.41;60.83;99361.13;2091033;28;20060;-46
2022/04/29 04:32:41;;;;;;;;;;;;;;;18.42;61.01;99362.81;2090492;28;19924;-44
2022/04/29 04:33:42;;;;;;;;;;;;;;;18.43;60.85;99364.47;2087023;28;20684;-44
2022/04/29 04:34:53;;;;;;;;;;;;;;;18.43;60.90;99369.81;2086042;28;20755;-44
2022/04/29 04:35:54;;;;;;;;;;;;;;;18.42;60.91;99366.31;2088919;28;21450;-46
2022/04/29 04:36:55;;;;;;;;;;;;;;;18.41;61.03;99367.31;2084170;28;20031;-46
2022/04/29 04:37:56;;;;;;;;;;;;;;;18.42;60.72;99363.63;2088399;28;19929;-45
2022/04/29 04:38:57;;;;;;;;;;;;;;;18.41;60.75;99366.50;2084519;28;19928;-45
2022/04/29 04:39:59;;;;;;;;;;;;;;;18.41;60.88;99361.13;2086952;28;19933;-47
2022/04/29 04:40:59;;;;;;;;;;;;;;;18.39;61.11;99363.16;2088932;28;19925;-47
2022/04/29 04:42:01;;;;;;;;;;;;;;;18.41;60.80;99364.63;2086908;28;19931;-47
2022/04/29 04:43:04;;;;;;;;;;;;;;;18.41;60.69;99361.13;2088203;28;19929;-45
2022/04/29 04:44:04;;;;;;;;;;;;;;;18.40;60.72;99365.66;2089996;28;19928;-46
2022/04/29 04:45:06;;;;;;;;;;;;;;;18.41;60.94;99369.16;2091852;28;20355;-45
2022/04/29 04:46:07;;;;;;;;;;;;;;;18.40;60.86;99359.47;2087894;28;20004;-47
2022/04/29 04:47:08;;;;;;;;;;;;;;;18.40;60.88;99357.59;2092172;28;19933;-46
2022/04/29 04:48:09;;;;;;;;;;;;;;;18.41;60.84;99364.63;2088707;28;20345;-46
2022/04/29 04:49:11;;;;;;;;;;;;;;;18.40;60.61;99359.47;2087350;28;19933;-46
2022/04/29 04:50:13;;;;;;;;;;;;;;;18.39;60.73;99353.25;2083188;28;19924;-45
2022/04/29 04:51:14;;;;;;;;;;;;;;;18.42;60.68;99357.44;2082764;28;20464;-46
2022/04/29 04:52:15;;;;;;;;;;;;;;;18.40;60.93;99359.47;2087881;28;19927;-46
2022/04/29 04:53:16;;;;;;;;;;;;;;;18.42;60.68;99368.19;2090111;28;20334;-45
2022/04/29 04:54:18;;;;;;;;;;;;;;;18.40;60.69;99362.16;2090792;28;19977;-46
2022/04/29 04:55:19;;;;;;;;;;;;;;;18.40;60.86;99359.47;2090116;28;19963;-47
2022/04/29 04:56:20;;;;;;;;;;;;;;;18.39;60.84;99361.31;2091176;28;19936;-47
2022/04/29 04:57:21;;;;;;;;;;;;;;;18.39;61.07;99366.69;2082505;28;20735;-47
2022/04/29 04:58:23;;;;;;;;;;;;;;;18.40;60.90;99359.47;2087942;28;19939;-46
2022/04/29 04:59:25;;;;;;;;;;;;;;;18.38;60.74;99362.31;2086868;28;20011;-45
2022/04/29 05:00:26;;;;;;;;;;;;;;;18.39;60.85;99366.69;2087674;28;19925;-46
2022/04/29 05:01:27;;;;;;;;;;;;;;;18.38;60.81;99370.38;2087453;28;20019;-46
2022/04/29 05:02:28;;;;;;;;;;;;;;;18.38;60.89;99367.69;2086088;28;19931;-46
2022/04/29 05:03:30;;;;;;;;;;;;;;;18.40;61.02;99370.19;2089621;28;19932;-47
2022/04/29 05:04:30;;;;;;;;;;;;;;;18.41;60.71;99361.94;2089673;28;19948;-46
2022/04/29 05:05:32;;;;;;;;;;;;;;;18.38;60.81;99367.69;2087312;28;19925;-45
2022/04/29 05:06:32;;;;;;;;;;;;;;;18.39;60.89;99371.22;2086984;28;19963;-48
2022/04/29 05:07:34;;;;;;;;;;;;;;;18.40;60.72;99370.19;2084170;28;19983;-46
2022/04/29 05:08:34;;;;;;;;;;;;;;;18.38;60.86;99370.38;2086293;28;19925;-45
2022/04/29 05:09:36;;;;;;;;;;;;;;;18.39;60.79;99376.59;2091123;28;19935;-46
2022/04/29 05:10:36;;;;;;;;;;;;;;;18.38;60.67;99373.06;2089059;28;19925;-46
2022/04/29 05:11:38;;;;;;;;;;;;;;;18.37;60.78;99371.41;2086584;28;19925;-44
2022/04/29 05:12:39;;;;;;;;;;;;;;;18.37;60.82;99371.41;2092167;28;19936;-47
2022/04/29 05:13:42;;;;;;;;;;;;;;;18.38;60.80;99372.22;2088293;28;19924;-46
2022/04/29 05:14:43;;;;;;;;;;;;;;;18.40;60.56;99368.34;2090339;28;20334;-45
2022/04/29 05:15:44;;;;;;;;;;;;;;;18.40;60.60;99370.19;2085655;28;19929;-46
2022/04/29 05:16:45;;;;;;;;;;;;;;;18.38;60.83;99369.53;2088352;28;19928;-45
2022/04/29 05:17:46;;;;;;;;;;;;;;;18.37;60.82;99373.25;2085521;28;19928;-45
2022/04/29 05:18:47;;;;;;;;;;;;;;;18.34;60.94;99371.78;2086155;28;19937;-44
2022/04/29 05:19:48;;;;;;;;;;;;;;;18.36;60.62;99375.13;2084927;28;19936;-46
2022/04/29 05:20:49;;;;;;;;;;;;;;;18.35;60.62;99376.13;2090054;28;19925;-47
2022/04/29 05:21:51;;;;;;;;;;;;;;;18.35;60.73;99377.97;2083792;28;20956;-47
2022/04/29 05:22:52;;;;;;;;;;;;;;;18.35;60.84;99372.59;2089514;28;19932;-45
2022/04/29 05:23:53;;;;;;;;;;;;;;;18.33;60.84;99366.56;2083376;28;19925;-47
2022/04/29 05:24:54;;;;;;;;;;;;;;;18.35;60.59;99372.59;2083420;28;19924;-45